createdAt,value
2019-01-21T00:00:57.732Z,97030.84
2019-01-21T00:03:25.574Z,97028.44
2019-01-21T00:05:52.527Z,97031.11
2019-01-21T00:08:19.484Z,97030.38
2019-01-21T00:10:46.440Z,97028.56
2019-01-21T00:13:13.378Z,97031.81
2019-01-21T00:15:40.371Z,97033.95
2019-01-21T00:18:07.507Z,97031.17
2019-01-21T00:20:34.489Z,97030.84
2019-01-21T00:23:02.495Z,97033.16
2019-01-21T00:25:28.495Z,97037.05
2019-01-21T00:27:55.450Z,97035.66
2019-01-21T00:30:22.395Z,97041.83
2019-01-21T00:32:49.360Z,97037.60
2019-01-21T00:35:16.346Z,97050.33
2019-01-21T00:37:43.306Z,97047.50
2019-01-21T00:40:10.255Z,97045.66
2019-01-21T00:42:37.221Z,97044.53
2019-01-21T00:45:04.164Z,97043.56
2019-01-21T00:47:31.167Z,97043.94
2019-01-21T00:49:58.129Z,97045.23
2019-01-21T00:52:25.072Z,97040.17
2019-01-21T00:54:52.028Z,97043.56
2019-01-21T00:57:18.974Z,97039.16
2019-01-21T00:59:46.004Z,97044.81
2019-01-21T01:02:13.068Z,97041.25
2019-01-21T01:04:40.018Z,97041.16
2019-01-21T01:07:06.976Z,97041.84
2019-01-21T01:09:33.924Z,97040.47
2019-01-21T01:12:01.039Z,97039.54
2019-01-21T01:14:27.991Z,97043.89
2019-01-21T01:16:55.019Z,97045.64
2019-01-21T01:19:21.988Z,97038.48
2019-01-21T01:21:49.119Z,97046.05
2019-01-21T01:24:16.079Z,97047.88
2019-01-21T01:26:43.202Z,97044.59
2019-01-21T01:29:10.167Z,97043.06
2019-01-21T01:31:37.127Z,97049.55
2019-01-21T01:34:04.071Z,97053.75
2019-01-21T01:36:31.119Z,97055.20
2019-01-21T01:38:58.060Z,97047.33
2019-01-21T01:41:25.018Z,97056.55
2019-01-21T01:43:51.969Z,97058.61
2019-01-21T01:46:18.993Z,97060.79
2019-01-21T01:48:46.634Z,97060.34
2019-01-21T01:51:12.901Z,97048.75
2019-01-21T01:53:39.875Z,97062.94
2019-01-21T01:56:06.785Z,97059.52
2019-01-21T01:58:33.730Z,97056.41
2019-01-21T02:01:00.780Z,97054.77
2019-01-21T02:03:27.718Z,97053.02
2019-01-21T02:05:54.668Z,97054.48
2019-01-21T02:08:21.619Z,97047.16
2019-01-21T02:10:48.595Z,97054.06
2019-01-21T02:13:15.538Z,97045.70
2019-01-21T02:15:42.479Z,97052.31
2019-01-21T02:18:09.473Z,97052.17
2019-01-21T02:20:36.429Z,97058.74
2019-01-21T02:23:03.891Z,97060.00
2019-01-21T02:25:32.587Z,97057.36
2019-01-21T02:27:59.543Z,97062.83
2019-01-21T02:30:26.662Z,97053.30
2019-01-21T02:32:58.427Z,97058.48
2019-01-21T02:35:26.175Z,97055.90
2019-01-21T02:40:58.757Z,97053.43
2019-01-21T02:43:26.341Z,97052.89
2019-01-21T02:46:08.255Z,97051.55
2019-01-21T02:48:38.058Z,97056.14
2019-01-21T02:51:06.704Z,97053.00
2019-01-21T02:53:35.834Z,97047.69
2019-01-21T02:56:06.742Z,97050.85
2019-01-21T02:58:39.762Z,97050.59
2019-01-21T03:01:09.614Z,97046.41
2019-01-21T03:03:37.199Z,97049.65
2019-01-21T03:06:19.131Z,97044.44
2019-01-21T03:08:47.859Z,97042.72
2019-01-21T03:11:26.666Z,97038.53
2019-01-21T03:13:58.501Z,97051.94
2019-01-21T03:16:25.450Z,97050.49
2019-01-21T03:18:52.390Z,97044.94
2019-01-21T03:21:23.147Z,97048.59
2019-01-21T03:23:53.150Z,97046.00
2019-01-21T03:26:23.762Z,97050.04
2019-01-21T03:28:51.655Z,97052.63
2019-01-21T03:31:33.505Z,97047.38
2019-01-21T03:34:04.232Z,97047.76
2019-01-21T03:36:32.851Z,97052.09
2019-01-21T03:39:02.769Z,97045.48
2019-01-21T03:41:31.638Z,97048.91
2019-01-21T03:43:59.370Z,97051.00
2019-01-21T03:46:42.158Z,97045.28
2019-01-21T03:49:14.892Z,97041.74
2019-01-21T03:51:57.623Z,97044.33
2019-01-21T03:54:24.575Z,97046.23
2019-01-21T03:56:51.537Z,97051.72
2019-01-21T03:59:21.257Z,97042.77
2019-01-21T04:01:48.211Z,97044.22
2019-01-21T04:07:10.107Z,97048.34
2019-01-21T04:09:37.808Z,97047.52
2019-01-21T04:12:20.427Z,97052.70
2019-01-21T04:15:04.177Z,97053.09
2019-01-21T04:17:36.901Z,97049.05
2019-01-21T04:20:09.716Z,97047.14
2019-01-21T04:22:40.495Z,97051.17
2019-01-21T04:25:08.270Z,97050.06
2019-01-21T04:27:39.079Z,97052.23
2019-01-21T04:30:17.053Z,97044.55
2019-01-21T04:32:44.029Z,97049.80
2019-01-21T04:35:15.781Z,97057.06
2019-01-21T04:37:43.552Z,97050.28
2019-01-21T04:40:12.307Z,97053.40
2019-01-21T04:42:43.001Z,97054.38
2019-01-21T04:45:14.711Z,97060.63
2019-01-21T04:47:56.662Z,97059.23
2019-01-21T04:50:28.459Z,97061.13
2019-01-21T04:52:58.495Z,97065.11
2019-01-21T04:55:28.377Z,97060.33
2019-01-21T04:57:58.113Z,97067.59
2019-01-21T05:00:26.891Z,97064.45
2019-01-21T05:02:53.840Z,97067.02
2019-01-21T05:05:32.695Z,97068.38
2019-01-21T05:08:02.503Z,97067.95
2019-01-21T05:10:34.122Z,97071.23
2019-01-21T05:13:18.831Z,97075.02
2019-01-21T05:15:48.697Z,97072.84
2019-01-21T05:18:30.532Z,97075.58
2019-01-21T05:21:03.325Z,97082.03
2019-01-21T05:23:33.264Z,97080.33
2019-01-21T05:26:01.980Z,97086.78
2019-01-21T05:28:30.703Z,97087.77
2019-01-21T05:31:13.615Z,97088.50
2019-01-21T05:33:46.376Z,97098.48
2019-01-21T05:36:19.266Z,97083.89
2019-01-21T05:39:02.078Z,97089.58
2019-01-21T05:41:33.001Z,97089.05
2019-01-21T05:44:14.825Z,97093.03
2019-01-21T05:46:46.574Z,97094.54
2019-01-21T05:49:19.429Z,97093.21
2019-01-21T05:51:56.266Z,97098.70
2019-01-21T05:54:24.248Z,97101.98
2019-01-21T05:56:52.100Z,97098.42
2019-01-21T05:59:20.962Z,97105.66
2019-01-21T06:01:53.796Z,97099.58
2019-01-21T06:04:21.600Z,97105.37
2019-01-21T06:06:51.533Z,97099.68
2019-01-21T06:09:21.235Z,97107.02
2019-01-21T06:11:50.854Z,97112.16
2019-01-21T06:14:23.850Z,97116.62
2019-01-21T06:17:06.610Z,97118.80
2019-01-21T06:19:39.549Z,97123.56
2019-01-21T06:22:09.637Z,97120.32
2019-01-21T06:24:48.411Z,97126.03
2019-01-21T06:30:14.199Z,97125.56
2019-01-21T06:32:43.847Z,97129.59
2019-01-21T06:35:12.607Z,97131.31
2019-01-21T06:37:40.397Z,97127.60
2019-01-21T06:40:09.442Z,97137.77
2019-01-21T06:42:52.183Z,97139.45
2019-01-21T06:45:21.997Z,97140.78
2019-01-21T06:48:06.746Z,97145.12
2019-01-21T06:50:36.587Z,97147.28
2019-01-21T06:53:14.496Z,97155.78
2019-01-21T06:55:42.130Z,97153.36
2019-01-21T06:58:09.283Z,97158.68
2019-01-21T07:00:42.070Z,97160.00
2019-01-21T07:03:11.930Z,97163.85
2019-01-21T07:05:44.582Z,97158.78
2019-01-21T07:08:17.498Z,97156.64
2019-01-21T07:10:44.544Z,97165.72
2019-01-21T07:13:17.457Z,97165.88
2019-01-21T07:15:51.380Z,97164.63
2019-01-21T07:18:26.020Z,97167.14
2019-01-21T07:21:09.845Z,97163.03
2019-01-21T07:23:49.566Z,97166.29
2019-01-21T07:26:19.377Z,97169.19
2019-01-21T07:28:47.243Z,97164.76
2019-01-21T07:31:14.189Z,97170.29
2019-01-21T07:33:58.831Z,97169.91
2019-01-21T07:36:31.512Z,97173.89
2019-01-21T07:39:13.345Z,97181.83
2019-01-21T07:41:56.020Z,97180.77
2019-01-21T07:44:24.903Z,97185.21
2019-01-21T07:47:07.563Z,97181.11
2019-01-21T07:49:35.447Z,97181.31
2019-01-21T07:52:12.361Z,97178.84
2019-01-21T07:54:45.144Z,97180.70
2019-01-21T07:57:13.057Z,97180.14
2019-01-21T07:59:45.947Z,97182.02
2019-01-21T08:02:15.590Z,97180.19
2019-01-21T08:04:44.088Z,97187.23
2019-01-21T08:07:15.488Z,97192.19
2019-01-21T08:09:46.379Z,97189.48
2019-01-21T08:12:29.126Z,97180.52
2019-01-21T08:14:56.908Z,97187.84
2019-01-21T08:17:34.749Z,97181.05
2019-01-21T08:20:02.639Z,97186.36
2019-01-21T08:22:31.560Z,97191.16
2019-01-21T08:25:14.381Z,97186.91
2019-01-21T08:27:56.344Z,97187.91
2019-01-21T08:30:25.979Z,97189.05
2019-01-21T08:33:08.697Z,97189.41
2019-01-21T08:35:49.683Z,97189.96
2019-01-21T08:38:31.532Z,97184.23
2019-01-21T08:41:02.176Z,97195.23
2019-01-21T08:43:35.019Z,97191.27
2019-01-21T08:46:07.875Z,97200.48
2019-01-21T08:48:54.894Z,97199.33
2019-01-21T08:51:24.636Z,97204.11
2019-01-21T08:53:53.426Z,97203.73
2019-01-21T08:56:35.360Z,97200.38
2019-01-21T08:59:03.082Z,97209.35
2019-01-21T09:01:35.966Z,97207.84
2019-01-21T09:04:22.836Z,97201.28
2019-01-21T09:07:00.552Z,97206.77
2019-01-21T09:09:27.450Z,97208.50
2019-01-21T09:11:56.358Z,97209.84
2019-01-21T09:14:24.079Z,97210.53
2019-01-21T09:16:56.902Z,97213.22
2019-01-21T09:19:27.728Z,97216.42
2019-01-21T09:21:56.542Z,97217.71
2019-01-21T09:24:30.400Z,97221.55
2019-01-21T09:26:59.183Z,97223.45
2019-01-21T09:29:43.093Z,97228.16
2019-01-21T09:32:10.994Z,97221.22
2019-01-21T09:34:40.895Z,97230.01
2019-01-21T09:37:07.850Z,97223.84
2019-01-21T09:39:34.838Z,97225.98
2019-01-21T09:42:03.775Z,97227.08
2019-01-21T09:44:33.511Z,97225.09
2019-01-21T09:47:00.149Z,97229.67
2019-01-21T09:49:26.801Z,97223.05
2019-01-21T09:51:53.747Z,97221.14
2019-01-21T09:54:20.678Z,97225.51
2019-01-21T09:56:47.740Z,97227.09
2019-01-21T09:59:14.686Z,97230.08
2019-01-21T10:01:41.648Z,97231.98
2019-01-21T10:04:08.601Z,97227.14
2019-01-21T10:06:36.516Z,97216.02
2019-01-21T10:09:06.117Z,97224.10
2019-01-21T10:11:38.984Z,97218.11
2019-01-21T10:14:12.119Z,97219.39
2019-01-21T10:16:53.541Z,97218.97
2019-01-21T10:19:30.438Z,97221.64
2019-01-21T10:22:03.149Z,97215.77
2019-01-21T10:24:31.782Z,97218.09
2019-01-21T10:26:59.531Z,97220.45
2019-01-21T10:29:36.501Z,97222.38
2019-01-21T10:32:19.149Z,97219.92
2019-01-21T10:34:47.138Z,97207.06
2019-01-21T10:37:30.869Z,97209.85
2019-01-21T10:40:12.700Z,97201.75
2019-01-21T10:42:41.449Z,97197.63
2019-01-21T10:45:09.169Z,97201.98
2019-01-21T10:47:38.063Z,97199.32
2019-01-21T10:50:18.957Z,97197.41
2019-01-21T10:55:40.550Z,97198.17
2019-01-21T10:58:08.452Z,97198.43
2019-01-21T11:00:35.413Z,97191.13
2019-01-21T11:03:12.164Z,97197.80
2019-01-21T11:05:44.115Z,97190.77
2019-01-21T11:08:13.890Z,97189.16
2019-01-21T11:10:45.869Z,97184.41
2019-01-21T11:13:13.816Z,97184.13
2019-01-21T11:15:44.644Z,97183.59
2019-01-21T11:18:15.472Z,97183.75
2019-01-21T11:20:42.567Z,97175.33
2019-01-21T11:23:12.465Z,97176.36
2019-01-21T11:25:55.299Z,97173.25
2019-01-21T11:28:23.052Z,97169.88
2019-01-21T11:30:53.887Z,97167.44
2019-01-21T11:33:25.664Z,97168.69
2019-01-21T11:36:10.409Z,97165.66
2019-01-21T11:38:37.402Z,97167.39
2019-01-21T11:41:08.088Z,97162.77
2019-01-21T11:43:40.063Z,97153.95
2019-01-21T11:46:16.995Z,97145.98
2019-01-21T11:48:44.751Z,97147.61
2019-01-21T11:51:26.664Z,97140.78
2019-01-21T11:54:08.480Z,97141.64
2019-01-21T11:56:37.446Z,97140.31
2019-01-21T11:59:04.631Z,97143.23
2019-01-21T12:01:32.122Z,97141.92
2019-01-21T12:04:04.275Z,97135.21
2019-01-21T12:06:31.291Z,97134.87
2019-01-21T12:08:59.118Z,97131.03
2019-01-21T12:11:26.094Z,97122.34
2019-01-21T12:13:58.885Z,97122.64
2019-01-21T12:16:40.883Z,97113.50
2019-01-21T12:19:07.837Z,97120.05
2019-01-21T12:21:49.727Z,97127.66
2019-01-21T12:24:16.686Z,97122.73
2019-01-21T12:26:47.736Z,97124.47
2019-01-21T12:29:19.675Z,97123.73
2019-01-21T12:32:02.574Z,97129.83
2019-01-21T12:34:41.089Z,97120.69
2019-01-21T12:37:09.846Z,97118.47
2019-01-21T12:39:42.654Z,97114.63
2019-01-21T12:42:11.699Z,97106.52
2019-01-21T12:44:44.458Z,97105.95
2019-01-21T12:47:11.576Z,97096.77
2019-01-21T12:49:39.510Z,97098.41
2019-01-21T12:52:06.491Z,97092.80
2019-01-21T12:54:35.309Z,97086.31
2019-01-21T12:57:18.066Z,97083.14
2019-01-21T12:59:45.890Z,97084.30
2019-01-21T13:02:13.620Z,97076.43
2019-01-21T13:04:40.701Z,97078.73
2019-01-21T13:07:08.363Z,97076.69
2019-01-21T13:09:51.133Z,97067.36
2019-01-21T13:12:18.207Z,97058.71
2019-01-21T13:14:46.123Z,97064.34
2019-01-21T13:17:13.146Z,97058.61
2019-01-21T13:19:46.127Z,97054.40
2019-01-21T13:22:15.031Z,97052.50
2019-01-21T13:24:47.771Z,97046.33
2019-01-21T13:27:24.887Z,97059.30
2019-01-21T13:29:51.849Z,97053.27
2019-01-21T13:32:28.939Z,97059.37
2019-01-21T13:34:59.682Z,97058.44
2019-01-21T13:37:44.568Z,97054.86
2019-01-21T13:40:16.358Z,97055.03
2019-01-21T13:42:46.037Z,97053.58
2019-01-21T13:45:27.885Z,97047.91
2019-01-21T13:47:54.884Z,97046.48
2019-01-21T13:50:22.463Z,97060.55
2019-01-21T13:52:55.218Z,97052.73
2019-01-21T13:55:23.066Z,97057.44
2019-01-21T13:58:07.197Z,97048.49
2019-01-21T14:00:37.099Z,97046.77
2019-01-21T14:03:06.988Z,97044.66
2019-01-21T14:05:38.883Z,97044.97
2019-01-21T14:08:05.835Z,97042.73
2019-01-21T14:10:47.770Z,97051.75
2019-01-21T14:13:16.559Z,97039.84
2019-01-21T14:15:44.307Z,97048.83
2019-01-21T14:18:15.142Z,97045.78
2019-01-21T14:20:51.059Z,97046.88
2019-01-21T14:23:18.046Z,97037.17
2019-01-21T14:25:47.835Z,97045.80
2019-01-21T14:28:22.037Z,97043.47
2019-01-21T14:30:54.801Z,97047.91
2019-01-21T14:33:26.725Z,97053.72
2019-01-21T14:36:08.685Z,97051.56
2019-01-21T14:38:41.533Z,97040.22
2019-01-21T14:41:08.531Z,97042.73
2019-01-21T14:43:37.298Z,97043.73
2019-01-21T14:46:12.010Z,97045.13
2019-01-21T14:48:39.066Z,97051.49
2019-01-21T14:51:06.048Z,97052.10
2019-01-21T14:53:33.814Z,97060.19
2019-01-21T14:56:16.447Z,97060.19
2019-01-21T14:58:45.432Z,97067.98
2019-01-21T15:01:16.083Z,97064.16
2019-01-21T15:03:44.999Z,97062.98
2019-01-21T15:06:12.099Z,97058.99
2019-01-21T15:08:39.087Z,97056.81
2019-01-21T15:11:08.468Z,97056.86
2019-01-21T15:13:36.084Z,97047.75
2019-01-21T15:16:09.894Z,97049.63
2019-01-21T15:18:40.729Z,97047.35
2019-01-21T15:21:10.301Z,97056.59
2019-01-21T15:23:40.322Z,97055.27
2019-01-21T15:26:13.061Z,97058.64
2019-01-21T15:28:41.000Z,97059.33
2019-01-21T15:31:24.535Z,97054.42
2019-01-21T15:34:07.879Z,97060.91
2019-01-21T15:36:52.024Z,97060.41
2019-01-21T15:39:20.159Z,97062.71
2019-01-21T15:41:47.708Z,97053.45
2019-01-21T15:44:17.526Z,97068.36
2019-01-21T15:46:51.287Z,97062.77
2019-01-21T15:49:20.530Z,97064.66
2019-01-21T15:52:04.187Z,97064.31
2019-01-21T15:54:41.908Z,97065.06
2019-01-21T15:57:12.567Z,97069.80
2019-01-21T15:59:39.653Z,97065.16
2019-01-21T16:02:07.444Z,97072.51
2019-01-21T16:04:34.612Z,97078.69
2019-01-21T16:07:06.084Z,97076.66
2019-01-21T16:09:36.177Z,97072.95
2019-01-21T16:12:19.019Z,97075.30
2019-01-21T16:14:46.996Z,97071.12
2019-01-21T16:17:18.693Z,97068.36
2019-01-21T16:19:45.732Z,97061.61
2019-01-21T16:22:13.706Z,97076.80
2019-01-21T16:24:49.994Z,97074.72
2019-01-21T16:27:17.670Z,97074.72
2019-01-21T16:29:46.223Z,97066.20
2019-01-21T16:32:13.209Z,97066.09
2019-01-21T16:34:43.199Z,97070.73
2019-01-21T16:37:12.065Z,97071.23
2019-01-21T16:39:45.001Z,97066.30
2019-01-21T16:42:12.634Z,97064.90
2019-01-21T16:44:39.730Z,97071.07
2019-01-21T16:47:06.729Z,97068.01
2019-01-21T16:49:33.744Z,97073.16
2019-01-21T16:52:00.761Z,97071.74
2019-01-21T16:54:27.973Z,97072.00
2019-01-21T16:56:54.920Z,97070.81
2019-01-21T16:59:21.894Z,97070.48
2019-01-21T17:01:48.858Z,97065.30
2019-01-21T17:04:15.858Z,97066.17
2019-01-21T17:06:42.887Z,97061.48
2019-01-21T17:09:09.884Z,97065.86
2019-01-21T17:11:36.836Z,97060.82
2019-01-21T17:14:03.922Z,97064.15
2019-01-21T17:16:30.886Z,97061.65
2019-01-21T17:18:57.901Z,97064.19
2019-01-21T17:21:27.050Z,97065.45
2019-01-21T17:23:51.928Z,97058.67
2019-01-21T17:26:18.881Z,97066.91
2019-01-21T17:28:45.842Z,97061.91
2019-01-21T17:31:12.856Z,97064.55
2019-01-21T17:33:40.758Z,97062.66
2019-01-21T17:36:07.763Z,97061.94
2019-01-21T17:38:34.773Z,97060.69
2019-01-21T17:41:01.898Z,97065.47
2019-01-21T17:43:28.910Z,97062.08
2019-01-21T17:45:55.891Z,97066.61
2019-01-21T17:48:23.799Z,97068.99
2019-01-21T17:50:50.767Z,97067.61
2019-01-21T17:53:17.785Z,97072.20
2019-01-21T17:55:45.165Z,97074.02
2019-01-21T17:58:12.188Z,97073.59
2019-01-21T18:00:39.118Z,97075.63
2019-01-21T18:03:06.183Z,97074.64
2019-01-21T18:05:33.143Z,97077.83
2019-01-21T18:08:00.139Z,97083.34
2019-01-21T18:10:27.267Z,97091.14
2019-01-21T18:12:54.212Z,97088.37
2019-01-21T18:15:21.242Z,97091.81
2019-01-21T18:17:48.421Z,97089.59
2019-01-21T18:20:15.393Z,97096.69
2019-01-21T18:22:42.372Z,97101.09
2019-01-21T18:25:09.439Z,97097.10
2019-01-21T18:27:36.471Z,97094.74
2019-01-21T18:30:03.490Z,97093.72
2019-01-21T18:32:30.494Z,97086.48
2019-01-21T18:34:57.505Z,97090.66
2019-01-21T18:37:24.485Z,97092.55
2019-01-21T18:39:51.766Z,97098.66
2019-01-21T18:42:18.835Z,97095.66
2019-01-21T18:44:45.790Z,97099.11
2019-01-21T18:47:12.746Z,97095.07
2019-01-21T18:49:39.731Z,97100.59
2019-01-21T18:52:06.697Z,97096.86
2019-01-21T18:54:33.778Z,97096.34
2019-01-21T18:57:00.818Z,97102.01
2019-01-21T18:59:27.780Z,97103.84
2019-01-21T19:01:54.822Z,97103.02
2019-01-21T19:04:21.793Z,97103.59
2019-01-21T19:06:48.734Z,97109.20
2019-01-21T19:09:15.782Z,97115.94
2019-01-21T19:11:42.793Z,97111.70
2019-01-21T19:14:10.758Z,97124.25
2019-01-21T19:16:37.731Z,97108.45
2019-01-21T19:19:04.684Z,97112.84
2019-01-21T19:21:33.542Z,97115.94
2019-01-21T19:24:00.519Z,97117.66
2019-01-21T19:26:27.477Z,97119.83
2019-01-21T19:28:55.104Z,97125.05
2019-01-21T19:31:22.070Z,97120.20
2019-01-21T19:33:49.831Z,97120.41
2019-01-21T19:36:17.448Z,97119.28
2019-01-21T19:38:45.480Z,97123.59
2019-01-21T19:41:12.575Z,97123.30
2019-01-21T19:43:39.715Z,97125.08
2019-01-21T19:46:06.686Z,97121.73
2019-01-21T19:48:33.633Z,97116.54
2019-01-21T19:51:00.615Z,97121.89
2019-01-21T19:53:27.551Z,97114.61
2019-01-21T19:55:54.505Z,97115.22
2019-01-21T19:58:21.499Z,97113.71
2019-01-21T20:00:48.446Z,97108.53
2019-01-21T20:03:15.397Z,97112.27
2019-01-21T20:05:42.368Z,97113.69
2019-01-21T20:08:09.315Z,97117.84
2019-01-21T20:10:36.300Z,97119.97
2019-01-21T20:13:03.301Z,97115.94
2019-01-21T20:15:30.245Z,97122.56
2019-01-21T20:17:57.310Z,97123.09
2019-01-21T20:20:25.250Z,97126.68
2019-01-21T20:22:57.476Z,97130.52
2019-01-21T20:25:19.329Z,97132.49
2019-01-21T20:27:46.421Z,97131.20
2019-01-21T20:30:14.391Z,97131.23
2019-01-21T20:32:42.387Z,97139.03
2019-01-21T20:35:08.647Z,97137.21
2019-01-21T20:37:36.350Z,97133.06
2019-01-21T20:40:03.398Z,97131.07
2019-01-21T20:42:30.513Z,97135.48
2019-01-21T20:44:57.574Z,97137.16
2019-01-21T20:47:29.826Z,97134.95
2019-01-21T20:49:56.956Z,97133.46
2019-01-21T20:52:24.163Z,97134.23
2019-01-21T20:54:51.280Z,97139.67
2019-01-21T20:57:18.594Z,97135.80
2019-01-21T20:59:45.622Z,97137.89
2019-01-21T21:02:12.644Z,97141.39
2019-01-21T21:04:39.703Z,97142.72
2019-01-21T21:07:06.863Z,97146.75
2019-01-21T21:09:33.916Z,97151.72
2019-01-21T21:12:00.994Z,97154.48
2019-01-21T21:14:28.150Z,97154.70
2019-01-21T21:16:55.606Z,97157.59
2019-01-21T21:19:22.753Z,97148.20
2019-01-21T21:21:49.780Z,97157.39
2019-01-21T21:24:16.823Z,97148.61
2019-01-21T21:26:43.850Z,97151.27
2019-01-21T21:29:10.883Z,97156.06
2019-01-21T21:31:37.903Z,97151.20
2019-01-21T21:34:05.251Z,97142.70
2019-01-21T21:36:32.366Z,97148.72
2019-01-21T21:38:59.448Z,97151.97
2019-01-21T21:41:26.697Z,97146.55
2019-01-21T21:43:53.726Z,97149.34
2019-01-21T21:46:20.757Z,97152.66
2019-01-21T21:48:47.829Z,97151.51
2019-01-21T21:51:14.887Z,97152.13
2019-01-21T21:53:41.945Z,97151.51
2019-01-21T21:56:08.971Z,97148.47
2019-01-21T21:58:36.002Z,97137.39
2019-01-21T22:01:03.032Z,97134.84
2019-01-21T22:03:30.040Z,97133.58
2019-01-21T22:05:57.088Z,97143.33
2019-01-21T22:08:24.147Z,97132.88
2019-01-21T22:10:51.202Z,97134.21
2019-01-21T22:13:18.230Z,97137.31
2019-01-21T22:15:45.245Z,97134.84
2019-01-21T22:18:12.257Z,97137.45
2019-01-21T22:20:39.326Z,97133.05
2019-01-21T22:23:06.516Z,97130.19
2019-01-21T22:25:33.769Z,97125.99
2019-01-21T22:28:00.833Z,97122.98
2019-01-21T22:30:28.514Z,97133.33
2019-01-21T22:32:55.576Z,97135.08
2019-01-21T22:35:22.615Z,97129.45
2019-01-21T22:37:49.725Z,97135.36
2019-01-21T22:40:16.806Z,97138.55
2019-01-21T22:42:43.852Z,97141.03
2019-01-21T22:45:10.909Z,97141.69
2019-01-21T22:47:37.948Z,97139.70
2019-01-21T22:50:05.066Z,97141.16
2019-01-21T22:52:32.073Z,97139.73
2019-01-21T22:54:59.108Z,97143.41
2019-01-21T22:57:26.134Z,97139.56
2019-01-21T22:59:53.207Z,97142.04
2019-01-21T23:02:20.222Z,97145.57
2019-01-21T23:04:47.238Z,97144.24
2019-01-21T23:07:14.293Z,97141.93
2019-01-21T23:09:41.328Z,97140.49
2019-01-21T23:12:08.388Z,97146.34
2019-01-21T23:14:35.487Z,97142.14
2019-01-21T23:17:02.603Z,97141.05
2019-01-21T23:19:30.564Z,97135.36
2019-01-21T23:21:57.665Z,97130.18
2019-01-21T23:24:24.698Z,97128.43
2019-01-21T23:26:51.724Z,97123.36
2019-01-21T23:29:18.747Z,97127.24
2019-01-21T23:31:45.815Z,97123.96
2019-01-21T23:34:12.852Z,97119.52
2019-01-21T23:36:39.940Z,97119.14
2019-01-21T23:39:06.969Z,97112.70
2019-01-21T23:41:33.994Z,97113.27
2019-01-21T23:44:01.036Z,97107.50
2019-01-21T23:46:33.895Z,97110.28
2019-01-21T23:49:00.925Z,97101.94
2019-01-21T23:51:28.245Z,97105.09
2019-01-21T23:53:55.271Z,97100.45
2019-01-21T23:56:22.300Z,97100.70
2019-01-21T23:58:49.341Z,97100.66
